sensor_id;sensor_type;location;lat;lon;timestamp;P1;durP1;ratioP1;P2;durP2;ratioP2
63320;SDS011;49449;48.800;9.534;2023-03-04T00:00:29;28.95;;;19.23;;
63320;SDS011;49449;48.800;9.534;2023-03-04T00:02:57;31.30;;;19.42;;
63320;SDS011;49449;48.800;9.534;2023-03-04T00:05:25;29.52;;;18.80;;
63320;SDS011;49449;48.800;9.534;2023-03-04T00:07:54;30.60;;;19.02;;
63320;SDS011;49449;48.800;9.534;2023-03-04T00:10:21;26.95;;;18.15;;
63320;SDS011;49449;48.800;9.534;2023-03-04T00:12:49;31.90;;;20.23;;
63320;SDS011;49449;48.800;9.534;2023-03-04T00:15:17;31.75;;;19.73;;
63320;SDS011;49449;48.800;9.534;2023-03-04T00:17:44;30.85;;;19.55;;
63320;SDS011;49449;48.800;9.534;2023-03-04T00:20:12;31.65;;;21.77;;
63320;SDS011;49449;48.800;9.534;2023-03-04T00:22:40;28.25;;;18.35;;
63320;SDS011;49449;48.800;9.534;2023-03-04T00:25:10;30.40;;;20.27;;
63320;SDS011;49449;48.800;9.534;2023-03-04T00:27:37;27.05;;;16.67;;
63320;SDS011;49449;48.800;9.534;2023-03-04T00:30:06;26.85;;;17.77;;
63320;SDS011;49449;48.800;9.534;2023-03-04T00:32:34;29.83;;;17.75;;
63320;SDS011;49449;48.800;9.534;2023-03-04T00:35:02;29.48;;;18.55;;
63320;SDS011;49449;48.800;9.534;2023-03-04T00:37:30;26.85;;;17.25;;
63320;SDS011;49449;48.800;9.534;2023-03-04T00:39:58;27.30;;;18.05;;
63320;SDS011;49449;48.800;9.534;2023-03-04T00:42:27;25.67;;;16.85;;
63320;SDS011;49449;48.800;9.534;2023-03-04T00:44:55;33.38;;;20.08;;
63320;SDS011;49449;48.800;9.534;2023-03-04T00:47:22;26.25;;;18.15;;
63320;SDS011;49449;48.800;9.534;2023-03-04T00:49:50;31.27;;;20.50;;
63320;SDS011;49449;48.800;9.534;2023-03-04T00:52:18;29.65;;;19.08;;
63320;SDS011;49449;48.800;9.534;2023-03-04T00:54:46;27.10;;;20.52;;
63320;SDS011;49449;48.800;9.534;2023-03-04T00:57:13;32.75;;;20.48;;
63320;SDS011;49449;48.800;9.534;2023-03-04T00:59:43;29.88;;;18.33;;
63320;SDS011;49449;48.800;9.534;2023-03-04T01:02:11;26.52;;;16.33;;
63320;SDS011;49449;48.800;9.534;2023-03-04T01:04:39;29.38;;;19.20;;
63320;SDS011;49449;48.800;9.534;2023-03-04T01:07:08;28.95;;;18.85;;
63320;SDS011;49449;48.800;9.534;2023-03-04T01:09:36;34.85;;;19.92;;
63320;SDS011;49449;48.800;9.534;2023-03-04T01:12:03;27.90;;;17.60;;
63320;SDS011;49449;48.800;9.534;2023-03-04T01:14:31;27.92;;;17.58;;
63320;SDS011;49449;48.800;9.534;2023-03-04T01:17:00;28.90;;;19.10;;
63320;SDS011;49449;48.800;9.534;2023-03-04T01:19:28;28.27;;;19.17;;
63320;SDS011;49449;48.800;9.534;2023-03-04T01:21:56;29.58;;;19.63;;
63320;SDS011;49449;48.800;9.534;2023-03-04T01:24:24;30.65;;;19.65;;
63320;SDS011;49449;48.800;9.534;2023-03-04T01:26:52;32.28;;;20.30;;
63320;SDS011;49449;48.800;9.534;2023-03-04T01:29:19;28.40;;;19.42;;
63320;SDS011;49449;48.800;9.534;2023-03-04T01:31:47;29.42;;;18.50;;
63320;SDS011;49449;48.800;9.534;2023-03-04T01:34:16;29.90;;;19.40;;
63320;SDS011;49449;48.800;9.534;2023-03-04T01:36:44;27.20;;;17.02;;
63320;SDS011;49449;48.800;9.534;2023-03-04T01:39:12;27.77;;;18.00;;
63320;SDS011;49449;48.800;9.534;2023-03-04T01:41:39;28.88;;;17.65;;
63320;SDS011;49449;48.800;9.534;2023-03-04T01:44:07;30.50;;;18.67;;
63320;SDS011;49449;48.800;9.534;2023-03-04T01:46:37;29.20;;;17.63;;
63320;SDS011;49449;48.800;9.534;2023-03-04T01:49:08;31.15;;;19.23;;
63320;SDS011;49449;48.800;9.534;2023-03-04T01:51:39;30.45;;;18.63;;
63320;SDS011;49449;48.800;9.534;2023-03-04T01:54:09;27.95;;;19.13;;
63320;SDS011;49449;48.800;9.534;2023-03-04T01:56:37;26.45;;;18.67;;
63320;SDS011;49449;48.800;9.534;2023-03-04T01:59:07;28.27;;;18.27;;
63320;SDS011;49449;48.800;9.534;2023-03-04T02:01:36;31.35;;;20.08;;
63320;SDS011;49449;48.800;9.534;2023-03-04T02:04:06;30.25;;;18.95;;
63320;SDS011;49449;48.800;9.534;2023-03-04T02:06:34;29.77;;;17.08;;
63320;SDS011;49449;48.800;9.534;2023-03-04T02:09:05;30.50;;;18.58;;
63320;SDS011;49449;48.800;9.534;2023-03-04T02:11:33;26.65;;;18.80;;
63320;SDS011;49449;48.800;9.534;2023-03-04T02:14:03;31.10;;;21.45;;
63320;SDS011;49449;48.800;9.534;2023-03-04T02:16:31;34.83;;;21.75;;
63320;SDS011;49449;48.800;9.534;2023-03-04T02:18:59;30.73;;;21.00;;
63320;SDS011;49449;48.800;9.534;2023-03-04T02:21:27;35.13;;;23.60;;
63320;SDS011;49449;48.800;9.534;2023-03-04T02:23:58;33.83;;;21.98;;
63320;SDS011;49449;48.800;9.534;2023-03-04T02:26:34;31.75;;;18.80;;
63320;SDS011;49449;48.800;9.534;2023-03-04T02:31:33;30.50;;;20.55;;
63320;SDS011;49449;48.800;9.534;2023-03-04T02:34:03;31.88;;;20.15;;
63320;SDS011;49449;48.800;9.534;2023-03-04T02:36:32;28.75;;;17.75;;
63320;SDS011;49449;48.800;9.534;2023-03-04T02:39:02;32.47;;;20.13;;
63320;SDS011;49449;48.800;9.534;2023-03-04T02:41:32;35.92;;;21.42;;
63320;SDS011;49449;48.800;9.534;2023-03-04T02:44:01;30.52;;;20.15;;
63320;SDS011;49449;48.800;9.534;2023-03-04T02:46:29;32.42;;;20.05;;
63320;SDS011;49449;48.800;9.534;2023-03-04T02:48:57;27.08;;;17.92;;
63320;SDS011;49449;48.800;9.534;2023-03-04T02:51:24;29.45;;;17.92;;
63320;SDS011;49449;48.800;9.534;2023-03-04T02:53:52;28.58;;;19.25;;
63320;SDS011;49449;48.800;9.534;2023-03-04T02:56:20;29.02;;;18.10;;
63320;SDS011;49449;48.800;9.534;2023-03-04T02:58:47;23.13;;;13.68;;
63320;SDS011;49449;48.800;9.534;2023-03-04T03:01:17;26.67;;;18.05;;
63320;SDS011;49449;48.800;9.534;2023-03-04T03:03:44;27.63;;;17.48;;
63320;SDS011;49449;48.800;9.534;2023-03-04T03:06:12;28.42;;;17.50;;
63320;SDS011;49449;48.800;9.534;2023-03-04T03:08:40;27.17;;;17.40;;
63320;SDS011;49449;48.800;9.534;2023-03-04T03:11:07;29.70;;;17.23;;
63320;SDS011;49449;48.800;9.534;2023-03-04T03:13:35;30.38;;;17.83;;
63320;SDS011;49449;48.800;9.534;2023-03-04T03:16:03;30.10;;;19.73;;
63320;SDS011;49449;48.800;9.534;2023-03-04T03:18:33;29.02;;;17.88;;
63320;SDS011;49449;48.800;9.534;2023-03-04T03:21:00;30.23;;;18.27;;
63320;SDS011;49449;48.800;9.534;2023-03-04T03:23:28;28.70;;;17.48;;
63320;SDS011;49449;48.800;9.534;2023-03-04T03:25:56;31.13;;;19.10;;
63320;SDS011;49449;48.800;9.534;2023-03-04T03:28:23;30.75;;;18.85;;
63320;SDS011;49449;48.800;9.534;2023-03-04T03:30:51;26.35;;;17.05;;
63320;SDS011;49449;48.800;9.534;2023-03-04T03:33:19;28.48;;;17.73;;
63320;SDS011;49449;48.800;9.534;2023-03-04T03:35:48;28.50;;;17.42;;
63320;SDS011;49449;48.800;9.534;2023-03-04T03:38:16;29.35;;;16.92;;
63320;SDS011;49449;48.800;9.534;2023-03-04T03:40:44;28.45;;;19.40;;
63320;SDS011;49449;48.800;9.534;2023-03-04T03:43:11;30.05;;;18.17;;
63320;SDS011;49449;48.800;9.534;2023-03-04T03:45:39;26.15;;;18.63;;
63320;SDS011;49449;48.800;9.534;2023-03-04T03:48:07;32.20;;;18.65;;
63320;SDS011;49449;48.800;9.534;2023-03-04T03:50:35;27.15;;;17.27;;
63320;SDS011;49449;48.800;9.534;2023-03-04T03:53:05;33.10;;;20.23;;
63320;SDS011;49449;48.800;9.534;2023-03-04T03:55:33;27.67;;;17.90;;
63320;SDS011;49449;48.800;9.534;2023-03-04T03:58:01;26.17;;;17.17;;
63320;SDS011;49449;48.800;9.534;2023-03-04T04:00:28;27.55;;;17.67;;
63320;SDS011;49449;48.800;9.534;2023-03-04T04:02:56;28.73;;;19.67;;
63320;SDS011;49449;48.800;9.534;2023-03-04T04:05:26;29.33;;;18.73;;
63320;SDS011;49449;48.800;9.534;2023-03-04T04:07:54;30.42;;;19.85;;
63320;SDS011;49449;48.800;9.534;2023-03-04T04:10:23;28.33;;;17.65;;
63320;SDS011;49449;48.800;9.534;2023-03-04T04:12:50;26.90;;;17.45;;
63320;SDS011;49449;48.800;9.534;2023-03-04T04:15:18;27.45;;;16.95;;
63320;SDS011;49449;48.800;9.534;2023-03-04T04:17:46;28.45;;;16.95;;
63320;SDS011;49449;48.800;9.534;2023-03-04T04:20:14;27.50;;;19.17;;
63320;SDS011;49449;48.800;9.534;2023-03-04T04:22:41;26.60;;;17.02;;
63320;SDS011;49449;48.800;9.534;2023-03-04T04:25:09;29.95;;;19.83;;
63320;SDS011;49449;48.800;9.534;2023-03-04T04:27:38;30.20;;;18.60;;
63320;SDS011;49449;48.800;9.534;2023-03-04T04:30:06;32.40;;;19.98;;
63320;SDS011;49449;48.800;9.534;2023-03-04T04:32:35;31.50;;;20.33;;
63320;SDS011;49449;48.800;9.534;2023-03-04T04:35:03;30.40;;;19.40;;
63320;SDS011;49449;48.800;9.534;2023-03-04T04:37:31;30.95;;;20.55;;
63320;SDS011;49449;48.800;9.534;2023-03-04T04:39:59;28.75;;;17.58;;
63320;SDS011;49449;48.800;9.534;2023-03-04T04:42:26;29.55;;;17.63;;
63320;SDS011;49449;48.800;9.534;2023-03-04T04:44:56;26.70;;;17.40;;
63320;SDS011;49449;48.800;9.534;2023-03-04T04:47:23;27.52;;;17.02;;
63320;SDS011;49449;48.800;9.534;2023-03-04T04:49:51;28.70;;;18.30;;
63320;SDS011;49449;48.800;9.534;2023-03-04T04:52:19;30.20;;;18.02;;
63320;SDS011;49449;48.800;9.534;2023-03-04T04:54:47;28.63;;;18.48;;
63320;SDS011;49449;48.800;9.534;2023-03-04T04:57:14;30.35;;;19.20;;
63320;SDS011;49449;48.800;9.534;2023-03-04T04:59:42;31.33;;;19.40;;
63320;SDS011;49449;48.800;9.534;2023-03-04T05:02:11;29.77;;;18.88;;
63320;SDS011;49449;48.800;9.534;2023-03-04T05:04:39;29.98;;;16.58;;
63320;SDS011;49449;48.800;9.534;2023-03-04T05:07:07;24.50;;;16.35;;
63320;SDS011;49449;48.800;9.534;2023-03-04T05:09:34;27.92;;;17.02;;
63320;SDS011;49449;48.800;9.534;2023-03-04T05:12:02;26.88;;;16.33;;
63320;SDS011;49449;48.800;9.534;2023-03-04T05:14:30;29.38;;;17.20;;
63320;SDS011;49449;48.800;9.534;2023-03-04T05:16:58;27.70;;;17.20;;
63320;SDS011;49449;48.800;9.534;2023-03-04T05:19:27;26.27;;;16.20;;
63320;SDS011;49449;48.800;9.534;2023-03-04T05:21:54;26.67;;;16.60;;
63320;SDS011;49449;48.800;9.534;2023-03-04T05:24:22;29.40;;;17.52;;
63320;SDS011;49449;48.800;9.534;2023-03-04T05:26:50;27.40;;;16.85;;
63320;SDS011;49449;48.800;9.534;2023-03-04T05:29:18;33.03;;;19.63;;
63320;SDS011;49449;48.800;9.534;2023-03-04T05:31:45;31.92;;;19.67;;
63320;SDS011;49449;48.800;9.534;2023-03-04T05:34:13;29.80;;;18.83;;
63320;SDS011;49449;48.800;9.534;2023-03-04T05:36:42;29.52;;;19.92;;
63320;SDS011;49449;48.800;9.534;2023-03-04T05:39:10;29.05;;;18.90;;
63320;SDS011;49449;48.800;9.534;2023-03-04T05:41:38;34.28;;;21.23;;
63320;SDS011;49449;48.800;9.534;2023-03-04T05:44:06;28.17;;;19.40;;
63320;SDS011;49449;48.800;9.534;2023-03-04T05:46:33;29.48;;;20.50;;
63320;SDS011;49449;48.800;9.534;2023-03-04T05:49:01;30.48;;;19.25;;
63320;SDS011;49449;48.800;9.534;2023-03-04T05:51:29;29.60;;;19.83;;
63320;SDS011;49449;48.800;9.534;2023-03-04T05:53:58;31.05;;;18.85;;
63320;SDS011;49449;48.800;9.534;2023-03-04T05:56:26;32.42;;;21.38;;
63320;SDS011;49449;48.800;9.534;2023-03-04T05:58:55;30.02;;;18.73;;
63320;SDS011;49449;48.800;9.534;2023-03-04T06:01:23;29.58;;;18.73;;
63320;SDS011;49449;48.800;9.534;2023-03-04T06:03:51;32.40;;;18.63;;
63320;SDS011;49449;48.800;9.534;2023-03-04T06:06:19;32.90;;;21.50;;
63320;SDS011;49449;48.800;9.534;2023-03-04T06:08:46;32.67;;;20.08;;
63320;SDS011;49449;48.800;9.534;2023-03-04T06:11:16;36.25;;;23.85;;
63320;SDS011;49449;48.800;9.534;2023-03-04T06:13:44;45.58;;;25.92;;
63320;SDS011;49449;48.800;9.534;2023-03-04T06:16:11;34.60;;;22.52;;
63320;SDS011;49449;48.800;9.534;2023-03-04T06:18:39;32.38;;;20.00;;
63320;SDS011;49449;48.800;9.534;2023-03-04T06:21:07;34.15;;;21.15;;
63320;SDS011;49449;48.800;9.534;2023-03-04T06:23:34;32.70;;;19.00;;
63320;SDS011;49449;48.800;9.534;2023-03-04T06:26:02;30.05;;;17.92;;
63320;SDS011;49449;48.800;9.534;2023-03-04T06:28:32;27.23;;;17.02;;
63320;SDS011;49449;48.800;9.534;2023-03-04T06:30:59;30.55;;;19.40;;
63320;SDS011;49449;48.800;9.534;2023-03-04T06:33:27;29.45;;;17.88;;
63320;SDS011;49449;48.800;9.534;2023-03-04T06:35:55;22.35;;;13.98;;
63320;SDS011;49449;48.800;9.534;2023-03-04T06:38:23;27.75;;;17.08;;
63320;SDS011;49449;48.800;9.534;2023-03-04T06:40:52;26.10;;;16.63;;
63320;SDS011;49449;48.800;9.534;2023-03-04T06:43:22;25.15;;;15.93;;
63320;SDS011;49449;48.800;9.534;2023-03-04T06:45:51;26.42;;;18.45;;
63320;SDS011;49449;48.800;9.534;2023-03-04T06:48:19;26.98;;;18.17;;
63320;SDS011;49449;48.800;9.534;2023-03-04T06:50:47;24.75;;;15.77;;
63320;SDS011;49449;48.800;9.534;2023-03-04T06:53:14;24.52;;;16.70;;
63320;SDS011;49449;48.800;9.534;2023-03-04T06:55:42;27.95;;;17.75;;
63320;SDS011;49449;48.800;9.534;2023-03-04T06:58:10;27.38;;;17.60;;
63320;SDS011;49449;48.800;9.534;2023-03-04T07:00:38;26.65;;;15.65;;
63320;SDS011;49449;48.800;9.534;2023-03-04T07:03:07;30.83;;;18.45;;
63320;SDS011;49449;48.800;9.534;2023-03-04T07:05:37;30.08;;;18.52;;
63320;SDS011;49449;48.800;9.534;2023-03-04T07:08:05;35.28;;;19.55;;
63320;SDS011;49449;48.800;9.534;2023-03-04T07:10:33;27.88;;;18.92;;
63320;SDS011;49449;48.800;9.534;2023-03-04T07:13:01;27.30;;;17.23;;
63320;SDS011;49449;48.800;9.534;2023-03-04T07:15:29;30.75;;;18.92;;
63320;SDS011;49449;48.800;9.534;2023-03-04T07:17:57;30.60;;;19.77;;
63320;SDS011;49449;48.800;9.534;2023-03-04T07:20:26;26.63;;;16.60;;
63320;SDS011;49449;48.800;9.534;2023-03-04T07:22:56;25.75;;;16.33;;
63320;SDS011;49449;48.800;9.534;2023-03-04T07:25:24;30.15;;;17.10;;
63320;SDS011;49449;48.800;9.534;2023-03-04T07:27:52;26.83;;;17.05;;
63320;SDS011;49449;48.800;9.534;2023-03-04T07:30:20;29.20;;;18.65;;
63320;SDS011;49449;48.800;9.534;2023-03-04T07:32:48;26.27;;;15.75;;
63320;SDS011;49449;48.800;9.534;2023-03-04T07:35:16;25.38;;;15.40;;
63320;SDS011;49449;48.800;9.534;2023-03-04T07:37:45;24.42;;;15.38;;
63320;SDS011;49449;48.800;9.534;2023-03-04T07:40:13;21.95;;;14.73;;
63320;SDS011;49449;48.800;9.534;2023-03-04T07:42:41;25.00;;;14.88;;
63320;SDS011;49449;48.800;9.534;2023-03-04T07:45:10;26.00;;;15.38;;
63320;SDS011;49449;48.800;9.534;2023-03-04T07:47:38;26.38;;;18.08;;
63320;SDS011;49449;48.800;9.534;2023-03-04T07:50:07;27.63;;;18.00;;
63320;SDS011;49449;48.800;9.534;2023-03-04T07:52:36;28.20;;;17.27;;
63320;SDS011;49449;48.800;9.534;2023-03-04T07:55:07;29.13;;;17.08;;
63320;SDS011;49449;48.800;9.534;2023-03-04T07:57:37;24.38;;;14.70;;
63320;SDS011;49449;48.800;9.534;2023-03-04T08:00:05;27.00;;;15.82;;
63320;SDS011;49449;48.800;9.534;2023-03-04T08:02:34;25.42;;;15.80;;
63320;SDS011;49449;48.800;9.534;2023-03-04T08:05:02;27.23;;;15.45;;
63320;SDS011;49449;48.800;9.534;2023-03-04T08:07:30;24.25;;;14.75;;
63320;SDS011;49449;48.800;9.534;2023-03-04T08:09:58;25.48;;;15.63;;
63320;SDS011;49449;48.800;9.534;2023-03-04T08:12:27;24.95;;;15.23;;
63320;SDS011;49449;48.800;9.534;2023-03-04T08:14:55;27.33;;;15.45;;
63320;SDS011;49449;48.800;9.534;2023-03-04T08:17:23;23.83;;;14.75;;
63320;SDS011;49449;48.800;9.534;2023-03-04T08:19:51;24.77;;;15.32;;
63320;SDS011;49449;48.800;9.534;2023-03-04T08:22:19;26.92;;;15.75;;
63320;SDS011;49449;48.800;9.534;2023-03-04T08:24:47;27.65;;;17.73;;
63320;SDS011;49449;48.800;9.534;2023-03-04T08:27:14;25.83;;;15.18;;
63320;SDS011;49449;48.800;9.534;2023-03-04T08:29:44;28.17;;;16.33;;
63320;SDS011;49449;48.800;9.534;2023-03-04T08:32:12;25.45;;;14.75;;
63320;SDS011;49449;48.800;9.534;2023-03-04T08:34:40;23.65;;;15.07;;
63320;SDS011;49449;48.800;9.534;2023-03-04T08:37:07;24.38;;;15.35;;
63320;SDS011;49449;48.800;9.534;2023-03-04T08:39:35;27.90;;;16.20;;
63320;SDS011;49449;48.800;9.534;2023-03-04T08:42:03;25.40;;;14.77;;
63320;SDS011;49449;48.800;9.534;2023-03-04T08:44:30;25.95;;;16.38;;
63320;SDS011;49449;48.800;9.534;2023-03-04T08:46:59;25.52;;;15.43;;
63320;SDS011;49449;48.800;9.534;2023-03-04T08:49:27;28.08;;;17.42;;
63320;SDS011;49449;48.800;9.534;2023-03-04T08:51:55;26.75;;;16.65;;
63320;SDS011;49449;48.800;9.534;2023-03-04T08:54:23;30.42;;;18.02;;
63320;SDS011;49449;48.800;9.534;2023-03-04T08:56:50;24.85;;;16.35;;
63320;SDS011;49449;48.800;9.534;2023-03-04T08:59:18;30.50;;;18.95;;
63320;SDS011;49449;48.800;9.534;2023-03-04T09:01:46;32.67;;;18.20;;
63320;SDS011;49449;48.800;9.534;2023-03-04T09:04:15;30.38;;;19.85;;
63320;SDS011;49449;48.800;9.534;2023-03-04T09:06:43;29.98;;;18.48;;
63320;SDS011;49449;48.800;9.534;2023-03-04T09:09:10;30.40;;;19.05;;
63320;SDS011;49449;48.800;9.534;2023-03-04T09:11:38;31.00;;;19.23;;
63320;SDS011;49449;48.800;9.534;2023-03-04T09:14:06;32.42;;;21.35;;
63320;SDS011;49449;48.800;9.534;2023-03-04T09:16:33;34.13;;;20.45;;
63320;SDS011;49449;48.800;9.534;2023-03-04T09:19:01;33.70;;;19.85;;
63320;SDS011;49449;48.800;9.534;2023-03-04T09:21:30;29.92;;;18.98;;
63320;SDS011;49449;48.800;9.534;2023-03-04T09:23:58;32.03;;;18.10;;
63320;SDS011;49449;48.800;9.534;2023-03-04T09:26:26;27.98;;;17.02;;
63320;SDS011;49449;48.800;9.534;2023-03-04T09:28:56;30.33;;;16.83;;
63320;SDS011;49449;48.800;9.534;2023-03-04T09:31:25;20.20;;;12.52;;
63320;SDS011;49449;48.800;9.534;2023-03-04T09:33:55;24.20;;;14.60;;
63320;SDS011;49449;48.800;9.534;2023-03-04T09:36:23;24.65;;;14.68;;
63320;SDS011;49449;48.800;9.534;2023-03-04T09:38:53;21.15;;;13.38;;
63320;SDS011;49449;48.800;9.534;2023-03-04T09:41:21;25.00;;;14.13;;
63320;SDS011;49449;48.800;9.534;2023-03-04T09:43:52;20.75;;;12.82;;
63320;SDS011;49449;48.800;9.534;2023-03-04T09:46:21;21.08;;;12.90;;
63320;SDS011;49449;48.800;9.534;2023-03-04T09:48:56;18.42;;;11.05;;
63320;SDS011;49449;48.800;9.534;2023-03-04T09:51:29;21.70;;;12.43;;
63320;SDS011;49449;48.800;9.534;2023-03-04T09:56:41;24.38;;;13.68;;
63320;SDS011;49449;48.800;9.534;2023-03-04T09:59:12;21.05;;;12.93;;
63320;SDS011;49449;48.800;9.534;2023-03-04T10:01:49;19.58;;;11.38;;
63320;SDS011;49449;48.800;9.534;2023-03-04T10:04:24;22.98;;;13.90;;
63320;SDS011;49449;48.800;9.534;2023-03-04T10:06:57;20.20;;;11.25;;
63320;SDS011;49449;48.800;9.534;2023-03-04T10:09:29;23.77;;;14.00;;
63320;SDS011;49449;48.800;9.534;2023-03-04T10:12:06;26.70;;;13.95;;
63320;SDS011;49449;48.800;9.534;2023-03-04T10:14:41;25.90;;;14.40;;
63320;SDS011;49449;48.800;9.534;2023-03-04T10:17:17;23.45;;;14.57;;
63320;SDS011;49449;48.800;9.534;2023-03-04T10:19:50;18.90;;;11.35;;
63320;SDS011;49449;48.800;9.534;2023-03-04T10:22:24;25.13;;;13.90;;
63320;SDS011;49449;48.800;9.534;2023-03-04T10:25:00;19.85;;;11.82;;
63320;SDS011;49449;48.800;9.534;2023-03-04T10:27:41;20.30;;;11.77;;
63320;SDS011;49449;48.800;9.534;2023-03-04T10:30:12;19.95;;;12.15;;
63320;SDS011;49449;48.800;9.534;2023-03-04T10:32:49;20.17;;;12.15;;
63320;SDS011;49449;48.800;9.534;2023-03-04T10:35:17;25.15;;;14.85;;
63320;SDS011;49449;48.800;9.534;2023-03-04T10:37:49;19.17;;;11.85;;
63320;SDS011;49449;48.800;9.534;2023-03-04T10:40:20;20.50;;;12.02;;
63320;SDS011;49449;48.800;9.534;2023-03-04T10:42:51;20.58;;;12.25;;
63320;SDS011;49449;48.800;9.534;2023-03-04T10:45:22;21.05;;;11.80;;
63320;SDS011;49449;48.800;9.534;2023-03-04T10:47:52;23.50;;;14.32;;
63320;SDS011;49449;48.800;9.534;2023-03-04T10:50:21;22.05;;;14.25;;
63320;SDS011;49449;48.800;9.534;2023-03-04T10:52:50;20.77;;;11.88;;
63320;SDS011;49449;48.800;9.534;2023-03-04T10:55:22;20.73;;;12.25;;
63320;SDS011;49449;48.800;9.534;2023-03-04T10:57:52;23.45;;;14.65;;
63320;SDS011;49449;48.800;9.534;2023-03-04T11:00:25;22.48;;;13.45;;
63320;SDS011;49449;48.800;9.534;2023-03-04T11:05:51;23.30;;;14.50;;
63320;SDS011;49449;48.800;9.534;2023-03-04T11:08:37;22.38;;;13.55;;
63320;SDS011;49449;48.800;9.534;2023-03-04T11:11:21;22.23;;;13.35;;
63320;SDS011;49449;48.800;9.534;2023-03-04T11:13:51;18.02;;;12.57;;
63320;SDS011;49449;48.800;9.534;2023-03-04T11:16:23;22.50;;;14.05;;
63320;SDS011;49449;48.800;9.534;2023-03-04T11:18:53;18.80;;;11.38;;
63320;SDS011;49449;48.800;9.534;2023-03-04T11:21:26;18.27;;;11.98;;
63320;SDS011;49449;48.800;9.534;2023-03-04T11:23:57;21.13;;;12.63;;
63320;SDS011;49449;48.800;9.534;2023-03-04T11:26:29;20.08;;;12.52;;
63320;SDS011;49449;48.800;9.534;2023-03-04T11:29:02;18.85;;;11.48;;
63320;SDS011;49449;48.800;9.534;2023-03-04T11:31:41;21.00;;;12.68;;
63320;SDS011;49449;48.800;9.534;2023-03-04T11:34:13;20.58;;;13.32;;
63320;SDS011;49449;48.800;9.534;2023-03-04T11:36:50;23.00;;;14.32;;
63320;SDS011;49449;48.800;9.534;2023-03-04T11:39:23;21.83;;;13.30;;
63320;SDS011;49449;48.800;9.534;2023-03-04T11:41:59;22.52;;;14.85;;
63320;SDS011;49449;48.800;9.534;2023-03-04T11:44:32;19.70;;;13.43;;
63320;SDS011;49449;48.800;9.534;2023-03-04T11:47:09;19.33;;;12.23;;
63320;SDS011;49449;48.800;9.534;2023-03-04T11:49:55;17.80;;;12.13;;
63320;SDS011;49449;48.800;9.534;2023-03-04T11:52:38;22.90;;;13.90;;
63320;SDS011;49449;48.800;9.534;2023-03-04T11:55:34;20.80;;;12.98;;
63320;SDS011;49449;48.800;9.534;2023-03-04T11:58:13;21.65;;;12.85;;
63320;SDS011;49449;48.800;9.534;2023-03-04T12:00:59;20.48;;;13.13;;
63320;SDS011;49449;48.800;9.534;2023-03-04T12:03:48;21.70;;;13.63;;
63320;SDS011;49449;48.800;9.534;2023-03-04T12:06:27;21.50;;;14.23;;
63320;SDS011;49449;48.800;9.534;2023-03-04T12:09:08;25.98;;;15.98;;
63320;SDS011;49449;48.800;9.534;2023-03-04T12:11:50;22.70;;;14.70;;
63320;SDS011;49449;48.800;9.534;2023-03-04T12:14:30;22.70;;;14.38;;
63320;SDS011;49449;48.800;9.534;2023-03-04T12:17:24;22.85;;;14.73;;
63320;SDS011;49449;48.800;9.534;2023-03-04T12:20:13;21.95;;;15.27;;
63320;SDS011;49449;48.800;9.534;2023-03-04T12:22:51;20.52;;;12.65;;
63320;SDS011;49449;48.800;9.534;2023-03-04T12:25:27;21.65;;;13.15;;
63320;SDS011;49449;48.800;9.534;2023-03-04T12:28:09;21.75;;;13.88;;
63320;SDS011;49449;48.800;9.534;2023-03-04T12:30:54;22.05;;;13.95;;
63320;SDS011;49449;48.800;9.534;2023-03-04T12:33:43;20.38;;;13.48;;
63320;SDS011;49449;48.800;9.534;2023-03-04T12:36:23;18.60;;;12.60;;
63320;SDS011;49449;48.800;9.534;2023-03-04T12:39:06;21.33;;;14.52;;
63320;SDS011;49449;48.800;9.534;2023-03-04T12:41:48;21.45;;;14.60;;
63320;SDS011;49449;48.800;9.534;2023-03-04T12:44:26;23.38;;;14.30;;
63320;SDS011;49449;48.800;9.534;2023-03-04T12:47:11;18.92;;;12.60;;
63320;SDS011;49449;48.800;9.534;2023-03-04T12:49:51;21.95;;;14.10;;
63320;SDS011;49449;48.800;9.534;2023-03-04T12:52:29;22.67;;;13.77;;
63320;SDS011;49449;48.800;9.534;2023-03-04T12:55:11;21.10;;;13.63;;
63320;SDS011;49449;48.800;9.534;2023-03-04T12:57:42;21.33;;;13.00;;
63320;SDS011;49449;48.800;9.534;2023-03-04T13:00:16;22.88;;;14.95;;
63320;SDS011;49449;48.800;9.534;2023-03-04T13:03:07;23.70;;;14.32;;
63320;SDS011;49449;48.800;9.534;2023-03-04T13:05:44;24.23;;;14.18;;
63320;SDS011;49449;48.800;9.534;2023-03-04T13:10:59;25.73;;;17.55;;
63320;SDS011;49449;48.800;9.534;2023-03-04T13:13:35;23.73;;;14.50;;
63320;SDS011;49449;48.800;9.534;2023-03-04T13:16:06;24.27;;;16.17;;
63320;SDS011;49449;48.800;9.534;2023-03-04T13:18:59;23.50;;;15.32;;
63320;SDS011;49449;48.800;9.534;2023-03-04T13:21:27;24.98;;;16.13;;
63320;SDS011;49449;48.800;9.534;2023-03-04T13:23:59;25.48;;;15.63;;
63320;SDS011;49449;48.800;9.534;2023-03-04T13:26:50;22.98;;;14.57;;
63320;SDS011;49449;48.800;9.534;2023-03-04T13:29:31;25.42;;;14.73;;
63320;SDS011;49449;48.800;9.534;2023-03-04T13:32:02;24.02;;;15.07;;
63320;SDS011;49449;48.800;9.534;2023-03-04T13:34:47;25.00;;;15.02;;
63320;SDS011;49449;48.800;9.534;2023-03-04T13:37:30;27.25;;;17.98;;
63320;SDS011;49449;48.800;9.534;2023-03-04T13:45:54;25.98;;;15.98;;
63320;SDS011;49449;48.800;9.534;2023-03-04T13:48:23;28.35;;;17.13;;
63320;SDS011;49449;48.800;9.534;2023-03-04T13:50:54;24.88;;;15.00;;
63320;SDS011;49449;48.800;9.534;2023-03-04T13:53:34;30.75;;;17.90;;
63320;SDS011;49449;48.800;9.534;2023-03-04T13:59:10;27.65;;;16.73;;
63320;SDS011;49449;48.800;9.534;2023-03-04T14:02:01;30.52;;;18.88;;
63320;SDS011;49449;48.800;9.534;2023-03-04T14:04:37;28.38;;;17.77;;
63320;SDS011;49449;48.800;9.534;2023-03-04T14:07:17;27.88;;;16.75;;
63320;SDS011;49449;48.800;9.534;2023-03-04T14:09:55;26.33;;;16.25;;
63320;SDS011;49449;48.800;9.534;2023-03-04T14:12:24;32.03;;;18.02;;
63320;SDS011;49449;48.800;9.534;2023-03-04T14:14:55;29.50;;;18.13;;
63320;SDS011;49449;48.800;9.534;2023-03-04T14:17:25;32.17;;;19.42;;
63320;SDS011;49449;48.800;9.534;2023-03-04T14:19:56;31.50;;;18.80;;
63320;SDS011;49449;48.800;9.534;2023-03-04T14:22:27;27.73;;;16.17;;
63320;SDS011;49449;48.800;9.534;2023-03-04T14:24:56;30.48;;;18.23;;
63320;SDS011;49449;48.800;9.534;2023-03-04T14:27:26;33.28;;;19.40;;
63320;SDS011;49449;48.800;9.534;2023-03-04T14:29:55;32.78;;;18.83;;
63320;SDS011;49449;48.800;9.534;2023-03-04T14:32:24;28.50;;;18.50;;
63320;SDS011;49449;48.800;9.534;2023-03-04T14:34:53;30.55;;;17.42;;
63320;SDS011;49449;48.800;9.534;2023-03-04T14:37:25;26.58;;;17.00;;
63320;SDS011;49449;48.800;9.534;2023-03-04T14:39:59;28.23;;;16.67;;
63320;SDS011;49449;48.800;9.534;2023-03-04T14:42:31;24.85;;;14.75;;
63320;SDS011;49449;48.800;9.534;2023-03-04T14:45:05;27.38;;;16.40;;
63320;SDS011;49449;48.800;9.534;2023-03-04T14:47:37;27.08;;;16.15;;
63320;SDS011;49449;48.800;9.534;2023-03-04T14:50:09;27.85;;;16.00;;
63320;SDS011;49449;48.800;9.534;2023-03-04T14:52:42;25.73;;;16.45;;
63320;SDS011;49449;48.800;9.534;2023-03-04T14:55:19;29.27;;;19.20;;
63320;SDS011;49449;48.800;9.534;2023-03-04T15:00:24;27.92;;;16.60;;
63320;SDS011;49449;48.800;9.534;2023-03-04T15:02:58;24.58;;;14.80;;